createdAt,value
2019-05-09T19:58:40.249Z,100371.12
2019-05-09T20:01:11.929Z,100375.78
2019-05-09T20:03:43.555Z,100373.52
2019-05-09T20:06:17.264Z,100374.84
2019-05-09T20:08:49.423Z,100378.86
2019-05-09T20:11:22.826Z,100383.45
2019-05-09T20:13:59.208Z,100383.97
2019-05-09T20:16:32.374Z,100389.67
2019-05-09T20:19:04.241Z,100390.91
2019-05-09T20:21:36.027Z,100395.94
2019-05-09T20:24:09.393Z,100401.54
2019-05-09T20:26:41.046Z,100397.26
2019-05-09T20:29:12.696Z,100406.66
2019-05-09T20:31:43.668Z,100407.47
2019-05-09T20:34:14.908Z,100404.19
2019-05-09T20:36:46.434Z,100406.42
2019-05-09T20:39:18.415Z,100412.97
2019-05-09T20:41:50.467Z,100412.97
2019-05-09T20:44:22.215Z,100408.36
2019-05-09T20:46:54.083Z,100415.91
2019-05-09T20:49:26.144Z,100416.63
2019-05-09T20:51:58.453Z,100409.74
2019-05-09T20:54:30.780Z,100417.71
2019-05-09T20:57:02.646Z,100412.73
2019-05-09T20:59:34.400Z,100418.34
2019-05-09T21:02:06.581Z,100410.50
2019-05-09T21:04:38.527Z,100411.06
2019-05-09T21:07:10.391Z,100408.80
2019-05-09T21:09:42.249Z,100413.55
2019-05-09T21:12:14.427Z,100420.24
2019-05-09T21:14:46.391Z,100416.68
2019-05-09T21:17:18.452Z,100423.22
2019-05-09T21:19:50.514Z,100428.11
2019-05-09T21:22:22.677Z,100418.71
2019-05-09T21:24:54.326Z,100437.94
2019-05-09T21:27:26.090Z,100437.15
2019-05-09T21:29:57.955Z,100439.11
2019-05-09T21:32:29.912Z,100439.44
2019-05-09T21:35:01.791Z,100440.37
2019-05-09T21:37:36.299Z,100441.92
2019-05-09T21:40:08.839Z,100450.81
2019-05-09T21:42:40.426Z,100449.63
2019-05-09T21:45:11.257Z,100454.23
2019-05-09T21:47:42.398Z,100455.67
2019-05-09T21:50:14.539Z,100453.44
2019-05-09T21:52:46.661Z,100451.69
2019-05-09T21:55:18.289Z,100454.00
2019-05-09T21:57:50.148Z,100447.84
2019-05-09T22:00:29.413Z,100444.23
2019-05-09T22:03:02.682Z,100440.09
2019-05-09T22:05:36.121Z,100441.75
2019-05-09T22:08:07.726Z,100433.88
2019-05-09T22:10:39.168Z,100436.98
2019-05-09T22:13:09.832Z,100439.96
2019-05-09T22:15:41.150Z,100450.16
2019-05-09T22:18:13.015Z,100444.44
2019-05-09T22:20:44.563Z,100442.23
2019-05-09T22:23:15.404Z,100437.43
2019-05-09T22:25:46.541Z,100441.86
2019-05-09T22:28:18.300Z,100440.95
2019-05-09T22:30:49.954Z,100446.09
2019-05-09T22:33:21.606Z,100449.69
2019-05-09T22:35:53.259Z,100459.20
2019-05-09T22:38:24.917Z,100460.39
2019-05-09T22:40:56.789Z,100457.14
2019-05-09T22:43:28.945Z,100461.14
2019-05-09T22:46:00.808Z,100468.44
2019-05-09T22:48:32.355Z,100469.48
2019-05-09T22:51:04.219Z,100467.73
2019-05-09T22:53:36.294Z,100467.41
2019-05-09T22:56:08.041Z,100469.36
2019-05-09T22:58:38.805Z,100467.64
2019-05-09T23:01:10.560Z,100471.91
2019-05-09T23:03:42.290Z,100473.63
2019-05-09T23:06:13.049Z,100468.02
2019-05-09T23:08:44.159Z,100466.59
2019-05-09T23:11:15.915Z,100465.70
2019-05-09T23:13:53.821Z,100465.78
2019-05-09T23:16:27.316Z,100466.41
2019-05-09T23:18:58.975Z,100465.37
2019-05-09T23:21:30.626Z,100452.87
2019-05-09T23:24:04.136Z,100457.53
2019-05-09T23:26:36.091Z,100458.20
2019-05-09T23:29:07.946Z,100451.89
2019-05-09T23:31:44.516Z,100440.30
2019-05-09T23:34:16.273Z,100440.59
2019-05-09T23:36:47.934Z,100441.39
2019-05-09T23:39:21.428Z,100440.45
2019-05-09T23:41:53.082Z,100447.86
2019-05-09T23:44:24.845Z,100437.93
2019-05-09T23:46:56.899Z,100433.88
2019-05-09T23:49:28.556Z,100430.42
2019-05-09T23:52:00.331Z,100432.20
2019-05-09T23:54:49.990Z,100434.69
2019-05-09T23:57:41.819Z,100439.80
